Main page
METAR-TAF:

METAR-TAF

Airports :

Tabriz, Iran

Tabriz International Airport

latitude: 38-05N, longitude: 046-17E, elevation: 1367 m

Current weather observation

The report was made 34 minutes ago, at 19:00 UTC
Wind 4 kt from the East/Northeast
Temperature -1°C
Humidity 80%
Pressure 1025 hPa
Visibility: 2500 m
mist

METAR: OITT 171900Z 06004KT 2500 BR NSC M01/M04 Q1024 A3026 NOSIG

Time: 23:04 (19:34 UTC)

Forecast

The report was made 1 hour and 54 minutes ago, at 17:40 UTC
Forecast valid from 17 at 18 UTC to 18 at 24 UTC
Wind 6 kt from the Northeast
Visibility: 2500 m
haze, mist
Temporary
from 17 at 21 UTC to 18 at 06 UTC
Visibility: 1200 m
mist
Temporary
from 18 at 06 UTC to 18 at 15 UTC
Visibility: 3500 m
haze

TAF: OITT 171740Z 1718/1824 04003MPS 2500 HZ BR NSC TEMPO 1721/1806 1200 BR TEMPO 1806/1815 3500 HZ

Weather observations and forecasts of more than 4000 airports (METAR and TAF reports).

The available stations are represented by yellow and red dots on the map.

Hover mouse over dot to see the name of the station.

Then click to see weather observations and forecasts.

To change the map : click on the green buttons with a black cross to zoom in, on the green button with a dash to zoom out, or on the green arrows for adjacent maps.


METAR-TAF: